createdAt,value
2018-02-14T00:01:30.604Z,3.60
2018-02-14T00:03:59.723Z,3.13
2018-02-14T00:06:28.111Z,4.00
2018-02-14T00:08:56.591Z,3.47
2018-02-14T00:11:24.919Z,3.40
2018-02-14T00:13:53.356Z,4.07
2018-02-14T00:16:21.693Z,3.63
2018-02-14T00:18:50.800Z,3.70
2018-02-14T00:21:19.140Z,4.20
2018-02-14T00:23:47.583Z,4.40
2018-02-14T00:26:15.933Z,5.03
2018-02-14T00:28:45.216Z,3.87
2018-02-14T00:31:14.343Z,3.90
2018-02-14T00:33:42.683Z,3.93
2018-02-14T00:36:11.039Z,4.47
2018-02-14T00:38:39.379Z,4.03
2018-02-14T00:41:07.715Z,3.90
2018-02-14T00:43:36.063Z,4.50
2018-02-14T00:46:04.513Z,4.00
2018-02-14T00:48:32.960Z,4.00
2018-02-14T00:51:01.298Z,4.53
2018-02-14T00:53:29.632Z,4.10
2018-02-14T00:55:58.754Z,4.40
2018-02-14T00:58:27.097Z,4.03
2018-02-14T01:00:55.441Z,4.37
2018-02-14T01:03:23.781Z,4.20
2018-02-14T01:05:52.114Z,4.67
2018-02-14T01:08:20.505Z,4.03
2018-02-14T01:10:49.248Z,4.30
2018-02-14T01:13:17.577Z,4.40
2018-02-14T01:15:45.915Z,4.63
2018-02-14T01:18:14.264Z,4.43
2018-02-14T01:20:44.302Z,4.47
2018-02-14T01:23:12.697Z,4.23
2018-02-14T01:25:41.032Z,4.43
2018-02-14T01:28:09.435Z,4.60
2018-02-14T01:30:37.778Z,5.03
2018-02-14T01:33:06.305Z,5.00
2018-02-14T01:35:34.643Z,5.53
2018-02-14T01:38:03.771Z,4.60
2018-02-14T01:40:32.135Z,4.90
2018-02-14T01:43:01.104Z,4.20
2018-02-14T01:45:29.444Z,5.37
2018-02-14T01:47:57.808Z,4.27
2018-02-14T01:50:42.945Z,4.73
2018-02-14T01:53:11.315Z,4.80
2018-02-14T01:55:39.660Z,5.07
2018-02-14T01:58:08.004Z,4.47
2018-02-14T02:00:36.398Z,5.33
2018-02-14T02:03:04.819Z,5.57
2018-02-14T02:05:33.218Z,5.20
2018-02-14T02:08:01.616Z,5.53
2018-02-14T02:10:30.013Z,5.60
2018-02-14T02:12:58.538Z,6.40
2018-02-14T02:15:26.917Z,5.90
2018-02-14T02:17:55.399Z,5.10
2018-02-14T02:20:23.955Z,7.23
2018-02-14T02:22:52.345Z,6.37
2018-02-14T02:25:20.733Z,6.23
2018-02-14T02:27:49.139Z,7.00
2018-02-14T02:30:17.527Z,6.97
2018-02-14T02:32:46.681Z,5.77
2018-02-14T02:35:15.067Z,6.77
2018-02-14T02:37:43.588Z,6.93
2018-02-14T02:40:24.625Z,6.47
2018-02-14T02:42:53.102Z,6.23
2018-02-14T02:45:21.476Z,6.53
2018-02-14T02:47:49.859Z,7.00
2018-02-14T02:50:18.307Z,6.63
2018-02-14T02:52:46.696Z,7.07
2018-02-14T02:55:15.202Z,6.23
2018-02-14T02:57:43.624Z,6.20
2018-02-14T03:00:13.828Z,6.37
2018-02-14T03:02:42.217Z,6.93
2018-02-14T03:05:10.609Z,7.30
2018-02-14T03:07:39.749Z,6.73
2018-02-14T03:10:08.136Z,7.00
2018-02-14T03:12:36.534Z,6.80
2018-02-14T03:15:04.960Z,7.27
2018-02-14T03:17:34.296Z,7.10
2018-02-14T03:20:02.753Z,7.50
2018-02-14T03:22:31.183Z,7.50
2018-02-14T03:24:59.575Z,7.77
2018-02-14T03:27:28.019Z,7.30
2018-02-14T03:29:56.689Z,7.23
2018-02-14T03:32:25.085Z,6.63
2018-02-14T03:34:53.480Z,6.97
2018-02-14T03:37:21.908Z,7.80
2018-02-14T03:39:51.074Z,7.03
2018-02-14T03:42:19.603Z,8.03
2018-02-14T03:44:47.987Z,7.43
2018-02-14T03:47:16.462Z,7.23
2018-02-14T03:49:44.886Z,7.20
2018-02-14T03:52:13.306Z,6.70
2018-02-14T03:54:41.789Z,7.33
2018-02-14T03:57:10.956Z,7.27
2018-02-14T03:59:39.354Z,7.30
2018-02-14T04:02:08.715Z,7.47
2018-02-14T04:04:37.105Z,7.43
2018-02-14T04:07:05.506Z,7.37
2018-02-14T04:09:33.923Z,7.60
2018-02-14T04:12:02.267Z,7.43
2018-02-14T04:14:31.458Z,7.57
2018-02-14T04:16:59.795Z,7.07
2018-02-14T04:19:28.148Z,7.37
2018-02-14T04:21:56.600Z,6.67
2018-02-14T04:24:24.949Z,6.97
2018-02-14T04:26:53.398Z,7.03
2018-02-14T04:29:21.733Z,7.03
2018-02-14T04:31:50.113Z,6.93
2018-02-14T04:34:18.449Z,7.23
2018-02-14T04:36:47.115Z,6.50
2018-02-14T04:39:15.460Z,7.17
2018-02-14T04:41:43.800Z,6.97
2018-02-14T04:44:12.161Z,6.43
2018-02-14T04:46:40.495Z,6.60
2018-02-14T04:49:08.868Z,6.13
2018-02-14T04:51:37.368Z,6.67
2018-02-14T04:54:05.705Z,6.83
2018-02-14T04:56:34.048Z,7.20
2018-02-14T04:59:02.397Z,6.43
2018-02-14T05:01:31.552Z,6.63
2018-02-14T05:04:00.798Z,6.57
2018-02-14T05:06:29.142Z,6.03
2018-02-14T05:08:57.691Z,6.27
2018-02-14T05:11:26.049Z,6.57
2018-02-14T05:13:54.477Z,6.90
2018-02-14T05:16:23.139Z,6.30
2018-02-14T05:18:51.488Z,6.83
2018-02-14T05:21:20.587Z,6.20
2018-02-14T05:23:49.708Z,7.00
2018-02-14T05:26:18.047Z,6.43
2018-02-14T05:28:46.425Z,7.43
2018-02-14T05:31:15.364Z,7.23
2018-02-14T05:33:43.716Z,7.23
2018-02-14T05:36:12.062Z,7.00
2018-02-14T05:38:40.416Z,7.13
2018-02-14T05:41:08.893Z,6.97
2018-02-14T05:43:37.240Z,7.53
2018-02-14T05:46:05.612Z,7.07
2018-02-14T05:48:34.712Z,7.00
2018-02-14T05:51:03.213Z,7.33
2018-02-14T05:53:31.555Z,7.50
2018-02-14T05:56:01.007Z,11.00
2018-02-14T05:58:29.344Z,9.87
2018-02-14T06:00:58.438Z,8.30
2018-02-14T06:03:27.550Z,7.70
2018-02-14T06:05:55.888Z,7.60
2018-02-14T06:08:24.239Z,6.93
2018-02-14T06:10:52.575Z,7.17
2018-02-14T06:13:22.395Z,8.57
2018-02-14T06:15:50.728Z,7.53
2018-02-14T06:18:19.084Z,8.10
2018-02-14T06:20:47.426Z,8.27
2018-02-14T06:23:16.533Z,7.73
2018-02-14T06:25:44.884Z,10.00
2018-02-14T06:28:14.024Z,10.93
2018-02-14T06:30:42.739Z,8.10
2018-02-14T06:33:11.147Z,7.03
2018-02-14T06:35:39.576Z,7.50
2018-02-14T06:38:07.923Z,7.13
2018-02-14T06:40:37.040Z,8.30
2018-02-14T06:43:06.273Z,7.97
2018-02-14T06:45:34.628Z,7.97
2018-02-14T06:48:03.002Z,8.33
2018-02-14T06:50:31.406Z,8.00
2018-02-14T06:52:59.789Z,7.20
2018-02-14T06:55:28.320Z,7.40
2018-02-14T06:57:57.447Z,7.73
2018-02-14T07:00:25.790Z,6.67
2018-02-14T07:02:54.205Z,10.33
2018-02-14T07:05:22.559Z,8.33
2018-02-14T07:07:50.905Z,7.87
2018-02-14T07:10:19.351Z,7.17
2018-02-14T07:12:47.704Z,8.17
2018-02-14T07:15:16.056Z,8.10
2018-02-14T07:17:44.409Z,7.33
2018-02-14T07:20:13.567Z,7.13
2018-02-14T07:22:41.926Z,8.07
2018-02-14T07:25:11.088Z,7.30
2018-02-14T07:27:39.428Z,7.57
2018-02-14T07:30:07.767Z,7.77
2018-02-14T07:32:36.903Z,7.60
2018-02-14T07:35:05.250Z,7.43
2018-02-14T07:37:33.620Z,7.67
2018-02-14T07:40:02.737Z,7.97
2018-02-14T07:42:31.891Z,7.70
2018-02-14T07:45:00.344Z,7.13
2018-02-14T07:47:28.676Z,7.80
2018-02-14T07:49:57.804Z,7.07
2018-02-14T07:52:26.156Z,22.57
2018-02-14T07:54:55.276Z,8.83
2018-02-14T07:57:23.624Z,8.17
2018-02-14T07:59:51.975Z,7.63
2018-02-14T08:02:20.310Z,7.07
2018-02-14T08:04:48.685Z,6.57
2018-02-14T08:07:17.176Z,6.50
2018-02-14T08:09:45.487Z,6.70
2018-02-14T08:12:13.866Z,7.37
2018-02-14T08:14:42.195Z,7.00
2018-02-14T08:17:11.307Z,5.97
2018-02-14T08:19:39.693Z,6.80
2018-02-14T08:22:08.036Z,6.77
2018-02-14T08:24:36.498Z,6.73
2018-02-14T08:27:04.962Z,7.27
2018-02-14T08:29:33.301Z,6.80
2018-02-14T08:32:01.650Z,6.80
2018-02-14T08:34:30.888Z,6.77
2018-02-14T08:36:59.388Z,7.03
2018-02-14T08:39:27.728Z,7.67
2018-02-14T08:41:56.819Z,6.70
2018-02-14T08:44:25.910Z,6.97
2018-02-14T08:46:54.325Z,6.70
2018-02-14T08:49:22.675Z,6.60
2018-02-14T08:51:51.070Z,7.07
2018-02-14T08:54:19.411Z,8.13
2018-02-14T08:56:47.768Z,12.90
2018-02-14T08:59:16.225Z,8.17
2018-02-14T09:01:44.569Z,6.30
2018-02-14T09:04:12.895Z,6.07
2018-02-14T09:06:41.231Z,6.53
2018-02-14T09:09:10.447Z,6.60
2018-02-14T09:11:38.828Z,6.77
2018-02-14T09:14:07.184Z,6.23
2018-02-14T09:16:36.262Z,6.20
2018-02-14T09:19:04.608Z,6.70
2018-02-14T09:21:32.932Z,6.70
2018-02-14T09:24:02.080Z,7.40
2018-02-14T09:26:30.467Z,6.50
2018-02-14T09:28:58.808Z,8.43
2018-02-14T09:31:27.307Z,9.00
2018-02-14T09:33:55.637Z,7.03
2018-02-14T09:36:24.066Z,7.00
2018-02-14T09:38:52.444Z,6.67
2018-02-14T09:41:20.791Z,6.77
2018-02-14T09:43:49.891Z,7.03
2018-02-14T09:46:19.122Z,6.70
2018-02-14T09:48:47.462Z,7.43
2018-02-14T09:51:16.583Z,7.87
2018-02-14T09:53:44.937Z,7.53
2018-02-14T09:56:14.037Z,7.67
2018-02-14T09:58:43.144Z,7.07
2018-02-14T10:01:11.488Z,7.60
2018-02-14T10:03:39.840Z,7.33
2018-02-14T10:06:08.175Z,7.70
2018-02-14T10:08:37.318Z,8.30
2018-02-14T10:11:05.671Z,7.20
2018-02-14T10:13:34.066Z,10.97
2018-02-14T10:16:02.420Z,8.43
2018-02-14T10:18:30.782Z,8.43
2018-02-14T10:20:59.131Z,7.67
2018-02-14T10:23:27.484Z,7.43
2018-02-14T10:25:55.805Z,7.40
2018-02-14T10:28:24.168Z,7.57
2018-02-14T10:30:52.468Z,6.80
2018-02-14T10:33:20.809Z,7.93
2018-02-14T10:35:49.164Z,7.80
2018-02-14T10:38:17.511Z,8.40
2018-02-14T10:40:46.610Z,7.97
2018-02-14T10:43:15.738Z,7.77
2018-02-14T10:45:44.114Z,7.83
2018-02-14T10:48:12.448Z,7.47
2018-02-14T10:50:40.895Z,8.27
2018-02-14T10:53:09.239Z,8.60
2018-02-14T10:55:37.634Z,7.93
2018-02-14T10:58:05.996Z,12.47
2018-02-14T11:03:40.111Z,9.80
2018-02-14T11:06:13.419Z,8.27
2018-02-14T11:08:42.521Z,7.73
2018-02-14T11:11:10.861Z,8.00
2018-02-14T11:13:39.204Z,7.53
2018-02-14T11:16:07.562Z,7.97
2018-02-14T11:18:35.923Z,7.67
2018-02-14T11:21:05.020Z,7.73
2018-02-14T11:23:33.363Z,8.07
2018-02-14T11:26:01.716Z,8.37
2018-02-14T11:28:30.040Z,7.53
2018-02-14T11:30:58.470Z,7.53
2018-02-14T11:33:26.829Z,7.27
2018-02-14T11:35:55.178Z,7.90
2018-02-14T11:38:23.503Z,9.47
2018-02-14T11:40:51.893Z,7.20
2018-02-14T11:43:20.231Z,7.40
2018-02-14T11:45:48.569Z,6.53
2018-02-14T11:48:16.906Z,6.83
2018-02-14T11:50:45.392Z,6.60
2018-02-14T11:53:13.738Z,6.50
2018-02-14T11:55:42.841Z,5.77
2018-02-14T11:58:11.428Z,6.60
2018-02-14T12:00:39.778Z,6.87
2018-02-14T12:03:08.234Z,6.13
2018-02-14T12:05:36.558Z,5.67
2018-02-14T12:08:05.676Z,5.37
2018-02-14T12:10:34.122Z,11.37
2018-02-14T12:13:03.219Z,6.33
2018-02-14T12:15:32.347Z,4.90
2018-02-14T12:18:00.663Z,4.90
2018-02-14T12:20:29.642Z,4.63
2018-02-14T12:22:57.985Z,5.23
2018-02-14T12:25:27.092Z,5.33
2018-02-14T12:27:55.427Z,5.07
2018-02-14T12:30:23.788Z,5.57
2018-02-14T12:32:52.137Z,5.53
2018-02-14T12:35:20.584Z,5.40
2018-02-14T12:37:49.685Z,5.40
2018-02-14T12:40:18.802Z,5.30
2018-02-14T12:42:47.158Z,5.70
2018-02-14T12:45:16.259Z,6.37
2018-02-14T12:47:45.391Z,6.67
2018-02-14T12:50:13.723Z,6.73
2018-02-14T12:52:42.856Z,6.40
2018-02-14T12:55:11.188Z,7.10
2018-02-14T12:57:39.525Z,6.67
2018-02-14T13:00:07.873Z,6.47
2018-02-14T13:02:36.288Z,10.87
2018-02-14T13:05:04.665Z,6.77
2018-02-14T13:07:33.021Z,6.50
2018-02-14T13:10:01.355Z,6.40
2018-02-14T13:12:29.790Z,6.57
2018-02-14T13:14:58.121Z,6.20
2018-02-14T13:17:26.610Z,6.07
2018-02-14T13:19:55.726Z,6.33
2018-02-14T13:22:24.092Z,6.53
2018-02-14T13:24:53.187Z,5.77
2018-02-14T13:27:22.294Z,6.50
2018-02-14T13:29:51.526Z,5.60
2018-02-14T13:32:20.490Z,6.23
2018-02-14T13:34:49.617Z,6.20
2018-02-14T13:37:18.777Z,6.37
2018-02-14T13:39:48.016Z,6.10
2018-02-14T13:42:16.358Z,5.80
2018-02-14T13:44:45.607Z,6.80
2018-02-14T13:47:14.063Z,6.60
2018-02-14T13:49:42.449Z,6.20
2018-02-14T13:52:11.416Z,5.87
2018-02-14T13:54:40.507Z,6.00
2018-02-14T13:57:09.708Z,6.67
2018-02-14T13:59:38.064Z,6.10
2018-02-14T14:02:06.503Z,6.00
2018-02-14T14:04:34.864Z,7.67
2018-02-14T14:07:03.212Z,11.40
2018-02-14T14:09:32.338Z,8.10
2018-02-14T14:12:00.828Z,8.57
2018-02-14T14:14:29.412Z,8.07
2018-02-14T14:16:57.804Z,8.53
2018-02-14T14:19:26.168Z,7.23
2018-02-14T14:21:54.546Z,6.87
2018-02-14T14:24:22.938Z,5.78
2018-02-14T14:26:51.288Z,5.93
2018-02-14T14:29:19.630Z,6.30
2018-02-14T14:31:48.016Z,5.90
2018-02-14T14:34:16.360Z,6.37
2018-02-14T14:36:44.703Z,6.13
2018-02-14T14:39:13.832Z,5.60
2018-02-14T14:41:42.181Z,5.55
2018-02-14T14:44:10.540Z,9.70
2018-02-14T14:46:38.878Z,7.67
2018-02-14T14:49:07.548Z,6.80
2018-02-14T14:51:35.884Z,6.10
2018-02-14T14:54:05.181Z,6.10
2018-02-14T14:56:33.527Z,6.63
2018-02-14T14:59:01.855Z,5.40
2018-02-14T15:01:30.220Z,7.13
2018-02-14T15:03:59.366Z,6.23
2018-02-14T15:06:28.041Z,9.37
2018-02-14T15:08:56.392Z,7.00
2018-02-14T15:11:25.492Z,6.20
2018-02-14T15:13:54.703Z,6.13
2018-02-14T15:16:23.106Z,6.43
2018-02-14T15:18:51.467Z,6.63
2018-02-14T15:21:19.822Z,6.73
2018-02-14T15:23:48.188Z,7.13
2018-02-14T15:26:16.505Z,6.70
2018-02-14T15:28:44.876Z,6.53
2018-02-14T15:31:13.259Z,6.73
2018-02-14T15:33:41.726Z,6.33
2018-02-14T15:36:10.947Z,6.70
2018-02-14T15:38:39.275Z,7.23
2018-02-14T15:41:07.653Z,6.67
2018-02-14T15:43:35.994Z,6.57
2018-02-14T15:46:04.332Z,6.47
2018-02-14T15:48:32.669Z,7.00
2018-02-14T15:51:01.013Z,7.10
2018-02-14T15:53:29.368Z,7.03
2018-02-14T15:55:58.483Z,6.77
2018-02-14T15:58:26.827Z,6.33
2018-02-14T16:00:55.151Z,7.00
2018-02-14T16:03:23.484Z,7.80
2018-02-14T16:05:52.534Z,6.97
2018-02-14T16:08:20.903Z,6.53
2018-02-14T16:10:49.249Z,13.93
2018-02-14T16:13:18.368Z,9.83
2018-02-14T16:15:46.718Z,7.70
2018-02-14T16:18:15.828Z,7.27
2018-02-14T16:20:45.040Z,6.67
2018-02-14T16:23:13.371Z,6.90
2018-02-14T16:25:41.708Z,7.00
2018-02-14T16:28:10.057Z,7.80
2018-02-14T16:30:39.157Z,8.10
2018-02-14T16:33:08.872Z,9.07
2018-02-14T16:35:37.983Z,9.47
2018-02-14T16:38:06.695Z,10.30
2018-02-14T16:40:35.025Z,26.70
2018-02-14T16:43:04.147Z,20.97
2018-02-14T16:45:32.560Z,14.57
2018-02-14T16:48:00.987Z,11.83
2018-02-14T16:50:29.624Z,16.10
2018-02-14T16:52:57.957Z,12.97
2018-02-14T16:55:26.311Z,13.23
2018-02-14T16:57:54.664Z,12.63
2018-02-14T17:00:23.003Z,12.77
2018-02-14T17:02:51.387Z,12.70
2018-02-14T17:05:19.773Z,12.63
2018-02-14T17:07:48.111Z,12.07
2018-02-14T17:10:16.444Z,11.53
2018-02-14T17:12:44.805Z,11.47
2018-02-14T17:15:13.153Z,11.43
2018-02-14T17:17:42.280Z,11.77
2018-02-14T17:20:10.619Z,11.77
2018-02-14T17:22:39.757Z,12.20
2018-02-14T17:25:08.099Z,11.83
2018-02-14T17:27:36.465Z,10.60
2018-02-14T17:30:04.968Z,11.73
2018-02-14T17:32:33.291Z,11.57
2018-02-14T17:35:01.662Z,11.93
2018-02-14T17:37:30.140Z,11.70
2018-02-14T17:39:58.494Z,12.07
2018-02-14T17:42:26.823Z,19.60
2018-02-14T17:44:55.271Z,13.93
2018-02-14T17:47:23.630Z,12.40
2018-02-14T17:49:52.095Z,11.40
2018-02-14T17:52:20.465Z,11.30
2018-02-14T17:54:48.821Z,11.93
2018-02-14T17:57:17.171Z,11.63
2018-02-14T17:59:45.519Z,11.33
2018-02-14T18:02:14.644Z,13.10
2018-02-14T18:04:42.996Z,12.20
2018-02-14T18:07:12.228Z,12.57
2018-02-14T18:09:40.610Z,12.73
2018-02-14T18:12:08.998Z,12.70
2018-02-14T18:14:37.378Z,14.93
2018-02-14T18:17:05.746Z,14.87
2018-02-14T18:19:34.101Z,12.77
2018-02-14T18:22:02.452Z,14.33
2018-02-14T18:24:31.190Z,12.27
2018-02-14T18:26:59.531Z,13.30
2018-02-14T18:29:27.892Z,12.67
2018-02-14T18:31:56.264Z,15.67
2018-02-14T18:34:24.628Z,14.00
2018-02-14T18:36:53.001Z,14.10
2018-02-14T18:39:21.449Z,14.00
2018-02-14T18:41:49.919Z,13.90
2018-02-14T18:44:18.420Z,14.63
2018-02-14T18:46:47.021Z,13.83
2018-02-14T18:49:15.369Z,14.77
2018-02-14T18:51:43.781Z,14.90
2018-02-14T18:54:12.252Z,14.50
2018-02-14T18:56:40.628Z,14.03
2018-02-14T18:59:09.002Z,13.97
2018-02-14T19:01:37.338Z,14.83
2018-02-14T19:04:05.690Z,15.13
2018-02-14T19:06:34.038Z,14.40
2018-02-14T19:09:02.456Z,13.27
2018-02-14T19:11:30.835Z,13.27
2018-02-14T19:13:59.289Z,12.77
2018-02-14T19:16:27.655Z,13.17
2018-02-14T19:18:56.054Z,13.37
2018-02-14T19:21:24.445Z,12.83
2018-02-14T19:23:53.442Z,11.97
2018-02-14T19:26:21.797Z,13.87
2018-02-14T19:28:50.168Z,11.63
2018-02-14T19:31:18.562Z,10.60
2018-02-14T19:33:46.991Z,13.00
2018-02-14T19:36:16.108Z,11.87
2018-02-14T19:38:44.462Z,11.63
2018-02-14T19:41:12.840Z,11.40
2018-02-14T19:43:41.277Z,11.07
2018-02-14T19:46:09.630Z,11.10
2018-02-14T19:48:38.037Z,11.47
2018-02-14T19:51:06.398Z,11.93
2018-02-14T19:53:34.750Z,10.87
2018-02-14T19:56:03.113Z,9.87
2018-02-14T19:58:31.466Z,9.93
2018-02-14T20:00:59.996Z,10.23
2018-02-14T20:03:29.115Z,10.87
2018-02-14T20:05:57.464Z,11.63
2018-02-14T20:08:26.605Z,9.97
2018-02-14T20:10:54.992Z,10.33
2018-02-14T20:13:23.503Z,10.07
2018-02-14T20:15:51.828Z,10.23
2018-02-14T20:18:20.295Z,10.90
2018-02-14T20:20:48.892Z,10.60
2018-02-14T20:23:17.232Z,10.80
2018-02-14T20:25:45.601Z,10.57
2018-02-14T20:28:14.036Z,10.53
2018-02-14T20:30:43.121Z,11.50
2018-02-14T20:33:11.486Z,10.67
2018-02-14T20:35:40.596Z,11.57
2018-02-14T20:38:08.958Z,11.30
2018-02-14T20:40:38.069Z,18.30
2018-02-14T20:43:06.473Z,12.40
2018-02-14T20:45:35.706Z,10.73
2018-02-14T20:48:04.056Z,11.87
2018-02-14T20:50:32.432Z,11.57
2018-02-14T20:53:00.784Z,12.67
2018-02-14T20:55:29.155Z,12.17
2018-02-14T20:57:58.260Z,13.33
2018-02-14T21:00:26.612Z,13.77
2018-02-14T21:02:55.008Z,13.27
2018-02-14T21:05:24.149Z,14.53
2018-02-14T21:07:52.524Z,14.00
2018-02-14T21:10:20.882Z,25.83
2018-02-14T21:12:49.231Z,15.83
2018-02-14T21:15:18.372Z,13.97
2018-02-14T21:17:46.726Z,14.20
2018-02-14T21:20:15.072Z,14.23
2018-02-14T21:22:43.448Z,15.03
2018-02-14T21:25:11.814Z,14.40
2018-02-14T21:27:40.173Z,14.27
2018-02-14T21:30:08.589Z,14.83
2018-02-14T21:32:36.948Z,14.93
2018-02-14T21:35:05.467Z,13.37
2018-02-14T21:37:33.923Z,14.53
2018-02-14T21:40:02.283Z,14.27
2018-02-14T21:42:30.622Z,14.30
2018-02-14T21:44:59.018Z,13.20
2018-02-14T21:47:27.379Z,13.60
2018-02-14T21:49:56.518Z,13.57
2018-02-14T21:52:24.875Z,14.27
2018-02-14T21:54:53.237Z,13.43
2018-02-14T21:57:21.606Z,13.50
2018-02-14T21:59:50.730Z,13.80
2018-02-14T22:02:19.076Z,14.27
2018-02-14T22:04:48.205Z,13.57
2018-02-14T22:07:16.557Z,14.10
2018-02-14T22:09:45.712Z,14.13
2018-02-14T22:12:14.677Z,14.13
2018-02-14T22:14:43.057Z,24.13
2018-02-14T22:17:11.399Z,14.90
2018-02-14T22:19:40.511Z,12.47
2018-02-14T22:22:08.874Z,13.77
2018-02-14T22:24:37.993Z,13.00
2018-02-14T22:27:06.355Z,12.63
2018-02-14T22:29:35.223Z,12.57
2018-02-14T22:32:03.680Z,13.47
2018-02-14T22:34:32.040Z,12.03
2018-02-14T22:37:00.374Z,13.00
2018-02-14T22:39:29.509Z,13.00
2018-02-14T22:41:57.851Z,12.27
2018-02-14T22:44:26.964Z,13.97
2018-02-14T22:46:55.325Z,14.47
2018-02-14T22:49:24.457Z,21.53
2018-02-14T22:51:52.810Z,13.33
2018-02-14T22:54:21.948Z,13.23
2018-02-14T22:56:50.296Z,13.60
2018-02-14T22:59:18.735Z,13.67
2018-02-14T23:01:47.177Z,13.47
2018-02-14T23:04:15.520Z,13.80
2018-02-14T23:06:44.746Z,13.17
2018-02-14T23:09:13.087Z,13.87
2018-02-14T23:11:41.447Z,13.27
2018-02-14T23:14:09.903Z,14.43
2018-02-14T23:16:38.237Z,13.43
2018-02-14T23:19:07.365Z,13.63
2018-02-14T23:21:35.724Z,14.07
2018-02-14T23:24:04.088Z,13.90
2018-02-14T23:26:33.237Z,13.40
2018-02-14T23:29:01.604Z,31.73
2018-02-14T23:31:29.976Z,16.43
2018-02-14T23:33:58.376Z,13.13
2018-02-14T23:36:26.749Z,13.53
2018-02-14T23:38:55.100Z,14.07
2018-02-14T23:41:23.476Z,13.73
2018-02-14T23:43:51.838Z,13.73
2018-02-14T23:46:21.114Z,13.63
2018-02-14T23:48:49.487Z,13.93
2018-02-14T23:51:17.969Z,13.27
2018-02-14T23:53:46.460Z,13.83
2018-02-14T23:56:14.947Z,15.03
2018-02-14T23:58:43.650Z,19.57
